Time;durP1;ratioP1;P1;durP2;ratioP2;P2;SDS_P1;SDS_P2;PMS_P1;PMS_P2;Temp;Humidity;BMP_temperature;BMP_pressure;BME280_temperature;BME280_humidity;BME280_pressure;Samples;Min_cycle;Max_cycle;Signal;HPM_P1;HPM_P2
2022/11/13 00:01:32;;;;;;;33.05;23.83;;;;;;;4.71;100.00;102678.25;5034019;28;20076;-82
2022/11/13 00:03:58;;;;;;;31.25;22.08;;;;;;;4.64;100.00;102663.84;5033938;28;20108;-80
2022/11/13 00:06:23;;;;;;;33.33;22.52;;;;;;;4.90;100.00;102705.38;5034158;28;20072;-80
2022/11/13 00:08:52;;;;;;;30.35;21.35;;;;;;;4.75;100.00;102680.78;5065933;28;20061;-81
2022/11/13 00:11:18;;;;;;;35.28;22.55;;;;;;;4.68;100.00;102666.34;5033768;28;20022;-80
2022/11/13 00:13:44;;;;;;;27.92;21.40;;;;;;;4.54;100.00;102643.44;5033811;28;20378;-80
2022/11/13 00:16:12;;;;;;;30.05;20.83;;;;;;;4.83;100.00;102694.38;5033896;28;20060;-80
2022/11/13 00:18:38;;;;;;;28.40;20.45;;;;;;;4.69;100.00;102672.31;5033824;28;20022;-80
2022/11/13 00:21:28;;;;;;;30.33;20.58;;;;;;;4.83;100.00;102684.13;5033762;28;20105;-80
2022/11/13 00:23:54;;;;;;;28.45;20.33;;;;;;;4.64;100.00;102664.69;5033500;28;20048;-81
2022/11/13 00:26:22;;;;;;;28.85;20.27;;;;;;;4.76;100.00;102686.75;5033550;28;20060;-80
2022/11/13 00:28:53;;;;;;;27.70;19.65;;;;;;;4.76;100.00;102687.59;5033385;28;20116;-81
2022/11/13 00:31:18;;;;;;;25.70;18.55;;;;;;;4.36;100.00;102627.41;5033578;28;20033;-81
2022/11/13 00:33:43;;;;;;;28.02;19.88;;;;;;;4.63;100.00;102680.06;5033388;28;20084;-80
2022/11/13 00:36:14;;;;;;;27.02;19.05;;;;;;;4.50;100.00;102666.50;5065031;28;20037;-81
2022/11/13 00:38:39;;;;;;;25.42;18.30;;;;;;;4.55;100.00;102670.72;5033355;28;20538;-81
2022/11/13 00:41:04;;;;;;;26.50;18.60;;;;;;;4.30;100.00;102639.38;5033530;28;20030;-81
2022/11/13 00:43:30;;;;;;;24.92;17.83;;;;;;;4.30;100.00;102649.59;5033129;28;20032;-81
2022/11/13 00:45:55;;;;;;;26.30;18.02;;;;;;;4.28;100.00;102653.88;5033051;28;20041;-80
2022/11/13 00:48:20;;;;;;;27.52;17.90;;;;;;;4.35;100.00;102666.63;5033355;28;20036;-81
2022/11/13 00:50:46;;;;;;;29.05;19.73;;;;;;;4.26;100.00;102653.06;5033191;28;20032;-80
2022/11/13 00:53:12;;;;;;;35.08;19.67;;;;;;;4.34;100.00;102663.22;5033037;28;20036;-81
2022/11/13 00:55:37;;;;;;;24.63;17.00;;;;;;;4.11;100.00;102637.81;5033320;28;20021;-81
2022/11/13 00:58:03;;;;;;;28.80;18.63;;;;;;;4.30;100.00;102657.28;5032915;28;20473;-80
2022/11/13 01:00:30;;;;;;;24.27;17.75;;;;;;;3.99;100.00;102609.78;5032844;28;20488;-80
2022/11/13 01:02:59;;;;;;;27.50;19.58;;;;;;;4.01;100.00;102633.63;5033086;28;20052;-80
2022/11/13 01:05:26;;;;;;;26.77;18.38;;;;;;;3.85;100.00;102602.22;5032951;28;20476;-80
2022/11/13 01:07:51;;;;;;;27.70;18.67;;;;;;;4.15;100.00;102657.41;5032792;28;20033;-83
2022/11/13 01:10:17;;;;;;;25.00;18.73;;;;;;;4.05;100.00;102635.31;5032863;28;20029;-82
2022/11/13 01:12:42;;;;;;;30.25;19.38;;;;;;;4.10;100.00;102643.78;5032701;28;20029;-81
2022/11/13 01:15:08;;;;;;;29.27;18.30;;;;;;;3.88;100.00;102619.25;5032550;28;20033;-81
2022/11/13 01:17:33;;;;;;;26.40;17.85;;;;;;;4.03;100.00;102649.78;5033073;28;20065;-82
2022/11/13 01:19:58;;;;;;;27.20;19.38;;;;;;;3.92;100.00;102634.53;5032627;28;20038;-81
2022/11/13 01:22:24;;;;;;;28.13;18.77;;;;;;;3.80;100.00;102619.28;5032803;28;20036;-81
2022/11/13 01:24:49;;;;;;;34.33;21.08;;;;;;;3.77;100.00;102611.63;5032805;28;20021;-80
2022/11/13 01:27:15;;;;;;;30.05;20.73;;;;;;;3.73;100.00;102605.69;5033192;28;20107;-82
2022/11/13 01:29:41;;;;;;;32.05;21.70;;;;;;;3.96;100.00;102640.50;5032611;28;20022;-83
2022/11/13 01:32:06;;;;;;;32.90;21.35;;;;;;;3.78;100.00;102612.50;5032814;28;20478;-81
2022/11/13 01:34:32;;;;;;;29.77;21.10;;;;;;;3.85;100.00;102625.22;5032694;28;20032;-82
2022/11/13 01:36:57;;;;;;;25.95;19.05;;;;;;;3.70;100.00;102609.97;5032713;28;20087;-82
2022/11/13 01:39:23;;;;;;;28.95;20.90;;;;;;;3.90;100.00;102635.41;5032594;28;20045;-84
2022/11/13 01:41:49;;;;;;;35.38;23.52;;;;;;;3.89;100.00;102619.22;5032850;28;20371;-83
2022/11/13 01:44:17;;;;;;;32.47;22.48;;;;;;;3.88;100.00;102627.75;5032345;28;20046;-85
2022/11/13 01:46:54;;;;;;;35.42;23.42;;;;;;;3.94;100.00;102627.72;5032772;28;20036;-83
2022/11/13 01:49:25;;;;;;;30.63;21.60;;;;;;;3.89;100.00;102628.59;5032464;28;20072;-81
2022/11/13 01:51:56;;;;;;;31.38;21.88;;;;;;;3.93;100.00;102632.81;5032527;28;20056;-82
2022/11/13 01:54:26;;;;;;;33.40;22.50;;;;;;;4.00;100.00;102639.59;5032714;28;20381;-82
2022/11/13 01:56:53;;;;;;;32.63;23.35;;;;;;;4.01;100.00;102629.34;5031015;28;20041;-82
2022/11/13 01:59:22;;;;;;;34.35;22.77;;;;;;;3.96;100.00;102630.25;5032366;28;20084;-82
2022/11/13 02:01:48;;;;;;;32.60;20.95;;;;;;;3.94;100.00;102621.78;5032348;28;20032;-82
2022/11/13 02:04:13;;;;;;;31.02;20.98;;;;;;;3.98;100.00;102615.75;5032441;28;20030;-79
2022/11/13 02:06:56;;;;;;;31.88;21.35;;;;;;;3.71;100.00;102569.09;5012420;28;20032;-81
2022/11/13 02:09:26;;;;;;;32.28;21.95;;;;;;;3.74;100.00;102563.97;5012801;28;20061;-83
2022/11/13 02:11:52;;;;;;;35.00;21.50;;;;;;;3.83;100.00;102595.41;5012808;28;20114;-82
2022/11/13 02:14:19;;;;;;;34.38;22.52;;;;;;;3.89;100.00;102587.72;5012514;28;20080;-83
2022/11/13 02:16:47;;;;;;;34.30;21.38;;;;;;;3.60;100.00;102547.88;5011113;28;20054;-82
2022/11/13 02:19:22;;;;;;;31.38;20.75;;;;;;;3.96;100.00;102591.94;5012388;28;20121;-81
2022/11/13 02:22:12;;;;;;;28.38;19.38;;;;;;;3.93;100.00;102591.94;5012659;28;20030;-82
2022/11/13 02:24:40;;;;;;;30.55;19.08;;;;;;;3.91;100.00;102591.94;5012623;28;20034;-82
2022/11/13 02:27:10;;;;;;;32.38;19.67;;;;;;;3.81;100.00;102592.88;5014043;28;20030;-80
2022/11/13 02:29:35;;;;;;;26.77;18.48;;;;;;;3.84;100.00;102587.75;5015534;28;20029;-83
2022/11/13 02:32:01;;;;;;;27.42;18.65;;;;;;;3.84;100.00;102589.47;5015639;28;20117;-82
2022/11/13 02:34:27;;;;;;;28.90;19.45;;;;;;;3.91;100.00;102593.66;5015994;28;20034;-82
2022/11/13 02:36:52;;;;;;;30.95;19.73;;;;;;;3.53;100.00;102530.03;5016047;28;20056;-82
2022/11/13 02:39:18;;;;;;;26.02;19.05;;;;;;;3.86;100.00;102596.25;5015942;28;20036;-82
2022/11/13 02:41:43;;;;;;;26.42;18.67;;;;;;;3.75;100.00;102562.25;5015855;28;20083;-82
2022/11/13 02:44:08;;;;;;;29.83;19.02;;;;;;;3.96;100.00;102584.25;5015396;28;20880;-81
2022/11/13 02:46:34;;;;;;;26.58;18.45;;;;;;;3.95;100.00;102585.97;5015518;28;20056;-82
2022/11/13 02:48:59;;;;;;;25.45;17.98;;;;;;;3.63;100.00;102536.78;5015550;28;20036;-81
2022/11/13 02:51:25;;;;;;;26.20;17.45;;;;;;;3.74;100.00;102546.09;5015799;28;20068;-81
2022/11/13 02:53:50;;;;;;;29.75;19.02;;;;;;;3.69;100.00;102529.94;5015515;28;20105;-81
2022/11/13 02:56:16;;;;;;;27.00;18.52;;;;;;;3.92;100.00;102562.97;5015472;28;20046;-82
2022/11/13 02:58:41;;;;;;;29.13;18.35;;;;;;;3.96;100.00;102556.16;5015303;28;20022;-82
2022/11/13 03:01:07;;;;;;;28.52;18.45;;;;;;;3.99;100.00;102559.50;5015221;28;20026;-82
2022/11/13 03:03:32;;;;;;;27.35;18.33;;;;;;;3.84;100.00;102533.25;5015217;28;20482;-81
2022/11/13 03:05:58;;;;;;;25.63;18.08;;;;;;;4.14;100.00;102566.22;5015420;28;20120;-80
2022/11/13 03:08:24;;;;;;;24.50;18.25;;;;;;;4.19;100.00;102571.28;5015246;28;20164;-80
2022/11/13 03:10:51;;;;;;;27.70;18.00;;;;;;;3.87;100.00;102515.31;5015057;28;20036;-80
2022/11/13 03:13:17;;;;;;;26.13;18.27;;;;;;;3.93;100.00;102535.69;5015143;28;20057;-80
2022/11/13 03:15:42;;;;;;;29.30;19.38;;;;;;;4.19;100.00;102573.84;5014964;28;20033;-80
2022/11/13 03:18:08;;;;;;;27.48;17.17;;;;;;;4.09;100.00;102537.28;5015018;28;20113;-80
2022/11/13 03:20:36;;;;;;;27.45;17.65;;;;;;;4.22;100.00;102556.75;5014979;28;20042;-80
2022/11/13 03:23:02;;;;;;;29.25;19.33;;;;;;;4.11;100.00;102529.59;5014981;28;20434;-80
2022/11/13 03:25:28;;;;;;;27.52;19.23;;;;;;;4.30;100.00;102556.69;5015027;28;20018;-80
2022/11/13 03:27:53;;;;;;;26.88;17.42;;;;;;;3.99;100.00;102497.31;5014777;28;20091;-80
2022/11/13 03:30:18;;;;;;;30.67;17.02;;;;;;;4.28;100.00;102549.03;5014835;28;20056;-80
2022/11/13 03:32:44;;;;;;;27.77;18.35;;;;;;;4.17;100.00;102507.38;5014751;28;20083;-80
2022/11/13 03:35:11;;;;;;;26.83;17.83;;;;;;;4.08;100.00;102494.69;5015062;28;20045;-80
2022/11/13 03:37:37;;;;;;;23.08;16.95;;;;;;;4.32;100.00;102535.34;5014109;28;20041;-81
2022/11/13 03:40:02;;;;;;;27.65;17.33;;;;;;;4.23;100.00;102509.03;5014363;28;20030;-80
2022/11/13 03:42:28;;;;;;;26.92;17.70;;;;;;;4.43;100.00;102531.88;5014736;28;20040;-81
2022/11/13 03:44:53;;;;;;;23.40;16.63;;;;;;;4.46;100.00;102542.91;5013247;28;20049;-80
2022/11/13 03:47:18;;;;;;;24.27;17.67;;;;;;;4.11;100.00;102471.63;5014377;28;20113;-80
2022/11/13 03:49:44;;;;;;;25.13;16.60;;;;;;;4.15;100.00;102472.47;5014256;28;20517;-82
2022/11/13 03:52:09;;;;;;;24.88;16.67;;;;;;;4.54;100.00;102530.88;5014416;28;20478;-81
2022/11/13 03:54:34;;;;;;;22.33;16.20;;;;;;;4.54;100.00;102528.31;5014187;28;20025;-80
2022/11/13 03:57:00;;;;;;;23.77;16.45;;;;;;;4.55;100.00;102522.34;5014633;28;20030;-80
2022/11/13 03:59:25;;;;;;;25.17;16.58;;;;;;;4.59;100.00;102531.66;5014334;28;20032;-80
2022/11/13 04:01:51;;;;;;;24.05;17.08;;;;;;;4.56;100.00;102523.19;5014127;28;20074;-80
2022/11/13 04:04:17;;;;;;;23.92;15.65;;;;;;;4.40;100.00;102484.13;5012838;28;20077;-80
2022/11/13 04:06:42;;;;;;;24.00;16.50;;;;;;;4.65;100.00;102515.41;5012933;28;20128;-80
2022/11/13 04:09:07;;;;;;;23.05;16.08;;;;;;;4.66;100.00;102499.19;5012859;28;20111;-81
2022/11/13 04:11:33;;;;;;;23.95;17.08;;;;;;;4.77;100.00;102506.75;5014201;28;20030;-81
2022/11/13 04:13:58;;;;;;;25.67;16.67;;;;;;;4.76;100.00;102499.94;5014177;28;20080;-80
2022/11/13 04:16:24;;;;;;;22.05;15.77;;;;;;;4.75;100.00;102500.81;5013974;28;20034;-78
2022/11/13 04:18:49;;;;;;;21.88;15.80;;;;;;;4.60;100.00;102474.50;5013916;28;20032;-80
2022/11/13 04:21:14;;;;;;;24.77;16.70;;;;;;;4.26;100.00;102411.84;5013947;28;20022;-83
2022/11/13 04:23:40;;;;;;;24.50;15.00;;;;;;;4.68;100.00;102468.47;5013685;28;20516;-80
2022/11/13 04:26:05;;;;;;;22.58;16.10;;;;;;;4.90;100.00;102500.59;5013866;28;20025;-82
2022/11/13 04:28:30;;;;;;;24.27;16.35;;;;;;;4.95;100.00;102490.31;5013938;28;20389;-83
2022/11/13 04:30:56;;;;;;;25.92;16.33;;;;;;;4.84;100.00;102472.53;5013718;28;20439;-80
2022/11/13 04:33:21;;;;;;;25.42;16.42;;;;;;;5.00;100.00;102488.53;5013633;28;20378;-81
2022/11/13 04:35:47;;;;;;;22.95;16.25;;;;;;;5.02;100.00;102484.25;5013666;28;20087;-82
2022/11/13 04:38:13;;;;;;;23.52;16.38;;;;;;;4.58;100.00;102409.72;5013535;28;20212;-81
2022/11/13 04:40:40;;;;;;;20.73;14.88;;;;;;;4.86;100.00;102450.31;5013560;28;20099;-82
2022/11/13 04:43:05;;;;;;;22.75;15.95;;;;;;;5.07;100.00;102479.91;5013697;28;20025;-81
2022/11/13 04:45:30;;;;;;;22.83;15.55;;;;;;;5.01;100.00;102475.69;5013577;28;20185;-82
2022/11/13 04:47:56;;;;;;;24.15;16.52;;;;;;;4.99;100.00;102482.56;5013405;28;20440;-81
2022/11/13 04:50:22;;;;;;;21.20;16.35;;;;;;;4.72;100.00;102436.84;5012814;28;20034;-80
2022/11/13 04:52:47;;;;;;;27.58;15.98;;;;;;;4.91;100.00;102479.25;5013374;28;20040;-82
2022/11/13 04:55:13;;;;;;;23.15;15.70;;;;;;;4.86;100.00;102484.44;5012157;28;20105;-83
2022/11/13 04:57:39;;;;;;;27.38;16.92;;;;;;;4.54;100.00;102441.34;5013481;28;20034;-81
2022/11/13 05:00:05;;;;;;;22.60;16.20;;;;;;;4.58;100.00;102460.91;5013252;28;20033;-81
2022/11/13 05:02:31;;;;;;;21.83;16.15;;;;;;;4.63;100.00;102472.81;5012915;28;20030;-80
2022/11/13 05:04:56;;;;;;;23.15;16.27;;;;;;;4.64;100.00;102483.00;5012930;28;20132;-82
2022/11/13 05:07:22;;;;;;;21.15;16.10;;;;;;;4.55;100.00;102481.41;5013160;28;20037;-83
2022/11/13 05:09:47;;;;;;;24.35;16.02;;;;;;;4.28;100.00;102446.75;5013466;28;20026;-81
2022/11/13 05:12:13;;;;;;;23.10;16.33;;;;;;;4.49;100.00;102478.06;5013452;28;20053;-82
2022/11/13 05:14:39;;;;;;;22.55;16.05;;;;;;;4.33;100.00;102464.63;5011866;28;20555;-82
2022/11/13 05:17:06;;;;;;;25.63;16.45;;;;;;;4.40;100.00;102480.72;5013155;28;20037;-82
2022/11/13 05:19:32;;;;;;;22.30;16.38;;;;;;;4.23;100.00;102455.34;5012856;28;20037;-81
2022/11/13 05:21:58;;;;;;;25.20;17.17;;;;;;;4.32;100.00;102475.69;5013090;28;20034;-82
2022/11/13 05:24:24;;;;;;;25.33;17.13;;;;;;;4.00;100.00;102424.88;5013142;28;20347;-83
2022/11/13 05:26:50;;;;;;;26.98;17.63;;;;;;;4.18;100.00;102460.50;5013121;28;20022;-81
2022/11/13 05:29:15;;;;;;;26.17;16.85;;;;;;;3.99;100.00;102429.16;5013185;28;20108;-82
2022/11/13 05:31:41;;;;;;;22.48;15.75;;;;;;;3.99;100.00;102435.97;5012883;28;20096;-82
2022/11/13 05:34:06;;;;;;;21.90;16.25;;;;;;;4.11;100.00;102463.13;5012660;28;20056;-82
2022/11/13 05:36:32;;;;;;;22.00;16.40;;;;;;;3.89;100.00;102434.38;5012900;28;20393;-83
2022/11/13 05:38:57;;;;;;;22.02;16.02;;;;;;;3.98;100.00;102459.84;5012661;28;20454;-82
2022/11/13 05:41:23;;;;;;;22.30;16.63;;;;;;;3.89;100.00;102452.25;5013179;28;20080;-82
2022/11/13 05:43:49;;;;;;;22.95;16.52;;;;;;;3.78;100.00;102448.97;5013006;28;20060;-82
2022/11/13 05:46:18;;;;;;;25.83;16.88;;;;;;;3.76;100.00;102463.47;5012741;28;20089;-82
2022/11/13 05:48:43;;;;;;;22.48;16.80;;;;;;;3.71;100.00;102453.25;5012443;28;20022;-82
2022/11/13 05:51:13;;;;;;;24.88;16.35;;;;;;;3.68;100.00;102456.69;5012841;28;20040;-81
2022/11/13 05:53:39;;;;;;;24.83;17.02;;;;;;;3.45;100.00;102430.50;5012854;28;20138;-82
2022/11/13 05:56:12;;;;;;;23.92;16.35;;;;;;;3.55;100.00;102461.94;5012949;28;20033;-82
2022/11/13 05:58:38;;;;;;;23.30;16.30;;;;;;;3.17;100.00;102409.44;5012725;28;20424;-81
2022/11/13 06:01:25;;;;;;;23.05;16.17;;;;;;;3.39;100.00;102456.91;5014285;28;20026;-81
2022/11/13 06:03:51;;;;;;;24.23;15.60;;;;;;;3.21;100.00;102439.16;4975065;28;20030;-82
2022/11/13 06:06:19;;;;;;;23.23;15.95;;;;;;;3.28;100.00;102460.41;4975158;28;20082;-81
2022/11/13 06:08:46;;;;;;;24.83;16.13;;;;;;;2.92;100.00;102392.56;4975286;28;20039;-83
2022/11/13 06:11:14;;;;;;;23.35;15.93;;;;;;;3.19;100.00;102448.56;4975191;28;20030;-82
2022/11/13 06:13:40;;;;;;;25.48;16.20;;;;;;;3.14;100.00;102451.13;4975083;28;20045;-81
2022/11/13 06:16:08;;;;;;;25.17;17.33;;;;;;;2.77;100.00;102385.88;4974937;28;20035;-81
2022/11/13 06:18:35;;;;;;;22.73;16.83;;;;;;;2.88;100.00;102410.47;4974968;28;20042;-81
2022/11/13 06:21:05;;;;;;;21.50;16.10;;;;;;;2.94;100.00;102419.75;4974875;28;20054;-81
2022/11/13 06:23:32;;;;;;;22.37;16.03;;;;;;;2.97;100.00;102437.63;4974980;28;20113;-80
2022/11/13 06:26:02;;;;;;;22.60;16.52;;;;;;;2.81;100.00;102416.44;4974886;28;20057;-81
2022/11/13 06:28:28;;;;;;;22.02;15.77;;;;;;;2.55;100.00;102385.94;4974810;28;20497;-82
2022/11/13 06:30:53;;;;;;;24.00;15.95;;;;;;;2.82;100.00;102438.53;4974797;28;20118;-82
2022/11/13 06:33:19;;;;;;;22.60;15.85;;;;;;;2.77;100.00;102434.34;4974450;28;20035;-81
2022/11/13 06:35:44;;;;;;;23.33;16.42;;;;;;;2.60;100.00;102414.00;5072461;23;20052;-80
2022/11/13 06:38:09;;;;;;;24.48;15.45;;;;;;;2.41;100.00;102392.84;5035769;28;20056;-80
2022/11/13 06:40:37;;;;;;;23.50;16.17;;;;;;;2.62;100.00;102437.78;5035654;28;20414;-80
2022/11/13 06:43:02;;;;;;;24.92;16.35;;;;;;;2.51;100.00;102417.44;5035468;28;20028;-81
2022/11/13 06:45:28;;;;;;;26.00;16.48;;;;;;;2.20;100.00;102363.19;5035466;28;20461;-80
2022/11/13 06:47:53;;;;;;;24.90;16.77;;;;;;;2.17;100.00;102368.28;5035510;28;20107;-80
2022/11/13 06:50:19;;;;;;;24.05;16.48;;;;;;;2.14;100.00;102359.78;5035057;28;20463;-81
2022/11/13 06:52:44;;;;;;;25.40;17.17;;;;;;;2.52;100.00;102414.03;5035334;28;20029;-80
2022/11/13 06:55:09;;;;;;;27.48;17.65;;;;;;;2.36;100.00;102396.25;5035494;28;20033;-80
2022/11/13 06:57:35;;;;;;;24.15;16.55;;;;;;;2.44;100.00;102415.75;5035285;28;20033;-80
2022/11/13 07:00:00;;;;;;;23.98;16.77;;;;;;;2.40;100.00;102414.09;5035243;28;20022;-80
2022/11/13 07:02:25;;;;;;;23.40;16.35;;;;;;;2.37;100.00;102415.81;5035115;28;20393;-79
2022/11/13 07:04:51;;;;;;;24.05;17.20;;;;;;;2.34;100.00;102414.09;5016866;28;20068;-81
2022/11/13 07:07:16;;;;;;;24.70;16.48;;;;;;;2.33;100.00;102412.41;5016739;28;20048;-80
2022/11/13 07:09:41;;;;;;;24.35;16.42;;;;;;;1.97;100.00;102360.72;5035089;28;20029;-81
2022/11/13 07:12:06;;;;;;;24.77;17.23;;;;;;;2.30;100.00;102417.50;5034189;28;20025;-81
2022/11/13 07:14:32;;;;;;;21.40;16.00;;;;;;;2.31;100.00;102416.66;5016693;28;20072;-83
2022/11/13 07:16:57;;;;;;;23.48;16.38;;;;;;;2.33;100.00;102417.50;5041888;23;20057;-83
2022/11/13 07:19:22;;;;;;;23.42;16.35;;;;;;;2.29;100.00;102405.63;5033565;28;20037;-82
2022/11/13 07:21:48;;;;;;;34.53;17.85;;;;;;;2.19;100.00;102394.63;5034642;28;20447;-83
2022/11/13 07:24:14;;;;;;;24.40;16.75;;;;;;;2.36;100.00;102419.19;5035160;28;20021;-81
2022/11/13 07:26:39;;;;;;;27.00;18.95;;;;;;;2.24;100.00;102387.78;5034863;28;20366;-82
2022/11/13 07:29:05;;;;;;;24.88;16.90;;;;;;;2.42;100.00;102412.38;5034772;28;20029;-83
2022/11/13 07:31:30;;;;;;;23.27;16.88;;;;;;;2.45;100.00;102414.06;5034685;28;20030;-83
2022/11/13 07:34:06;;;;;;;24.65;17.98;;;;;;;1.60;100.00;102254.69;5040239;23;20069;-82
2022/11/13 07:36:31;;;;;;;26.67;17.10;;;;;;;1.24;100.00;102192.00;5034246;28;20037;-82
2022/11/13 07:39:06;;;;;;;23.77;17.40;;;;;;;1.89;100.00;102300.44;5034505;28;20465;-83
2022/11/13 07:41:31;;;;;;;24.95;16.90;;;;;;;2.63;100.00;102413.97;5034770;28;20021;-81
2022/11/13 07:44:02;;;;;;;25.05;16.83;;;;;;;2.23;100.00;102330.03;5034973;28;20488;-82
2022/11/13 07:46:34;;;;;;;24.42;17.42;;;;;;;2.28;100.00;102335.97;5032360;28;20033;-82
2022/11/13 07:49:06;;;;;;;22.67;16.55;;;;;;;1.58;100.00;102210.59;5034110;28;20071;-82
2022/11/13 07:51:31;;;;;;;24.67;17.80;;;;;;;2.87;100.00;102407.91;5034134;28;20033;-82
2022/11/13 07:53:56;;;;;;;25.70;17.55;;;;;;;2.91;100.00;102412.13;5034055;28;20032;-82
2022/11/13 07:56:24;;;;;;;25.15;17.63;;;;;;;2.22;100.00;102286.72;5034169;28;20489;-83
2022/11/13 07:58:49;;;;;;;25.27;18.10;;;;;;;2.92;100.00;102390.03;5034252;28;20021;-82
2022/11/13 08:01:15;;;;;;;25.73;18.13;;;;;;;2.82;100.00;102362.00;5033165;28;20100;-80
2022/11/13 08:03:40;;;;;;;29.55;18.67;;;;;;;3.07;100.00;102398.44;5034081;28;20048;-85
2022/11/13 08:06:07;;;;;;;26.50;19.00;;;;;;;3.13;100.00;102392.41;5034064;28;20535;-83
2022/11/13 08:08:33;;;;;;;29.02;20.00;;;;;;;3.08;100.00;102374.59;5034026;28;20087;-79
2022/11/13 08:11:05;;;;;;;26.75;18.67;;;;;;;3.27;100.00;102397.44;5032791;28;20120;-79
2022/11/13 08:13:31;;;;;;;28.50;19.42;;;;;;;3.30;100.00;102390.59;5066012;28;20030;-79
2022/11/13 08:16:00;;;;;;;29.42;19.85;;;;;;;3.44;100.00;102405.78;5034087;28;20080;-80
2022/11/13 08:18:27;;;;;;;25.75;19.55;;;;;;;3.49;100.00;102404.06;5033845;28;20039;-81
2022/11/13 08:20:53;;;;;;;28.00;19.50;;;;;;;3.45;100.00;102384.53;5033361;28;20630;-80
2022/11/13 08:23:18;;;;;;;27.10;19.27;;;;;;;3.63;100.00;102398.81;5033706;28;20025;-80
2022/11/13 08:25:43;;;;;;;26.77;18.75;;;;;;;3.69;100.00;102401.34;5033540;28;20112;-80
2022/11/13 08:28:09;;;;;;;29.67;20.10;;;;;;;3.76;100.00;102395.31;5033697;28;20018;-81
2022/11/13 08:30:34;;;;;;;28.25;19.52;;;;;;;3.77;100.00;102386.78;5033588;28;20032;-80
2022/11/13 08:33:01;;;;;;;28.02;20.13;;;;;;;3.94;100.00;102389.19;5033164;28;20053;-80
2022/11/13 08:35:26;;;;;;;29.55;21.00;;;;;;;3.98;100.00;102385.72;5033192;28;20446;-81
2022/11/13 08:37:52;;;;;;;28.48;21.50;;;;;;;3.93;100.00;102364.47;5033686;28;20198;-80
2022/11/13 08:40:17;;;;;;;28.73;20.75;;;;;;;4.16;100.00;102375.31;5033295;28;20393;-80
2022/11/13 08:42:43;;;;;;;31.38;20.70;;;;;;;4.14;100.00;102356.59;5033657;28;20075;-79
2022/11/13 08:45:08;;;;;;;25.95;20.65;;;;;;;4.16;100.00;102349.72;5032465;28;20076;-80
2022/11/13 08:47:34;;;;;;;30.65;21.85;;;;;;;4.44;100.00;102372.41;5033130;28;20029;-81
2022/11/13 08:50:00;;;;;;;30.00;21.38;;;;;;;4.50;100.00;102372.31;5032911;28;20100;-81
2022/11/13 08:52:25;;;;;;;31.40;22.85;;;;;;;4.64;100.00;102367.88;5032843;28;20168;-79
2022/11/13 08:54:50;;;;;;;31.05;21.35;;;;;;;4.84;100.00;102377.84;5033190;28;20025;-81
2022/11/13 08:57:18;;;;;;;27.85;21.85;;;;;;;4.98;100.00;102367.38;5033484;28;20029;-80
2022/11/13 08:59:43;;;;;;;26.50;20.65;;;;;;;5.06;100.00;102368.13;5033037;28;20108;-75
2022/11/13 09:02:14;;;;;;;29.05;20.63;;;;;;;4.91;100.00;102325.66;5033038;28;20167;-75
2022/11/13 09:04:39;;;;;;;24.75;20.02;;;;;;;5.28;100.00;102361.78;5015084;28;20017;-80
2022/11/13 09:07:04;;;;;;;24.48;20.10;;;;;;;5.36;100.00;102367.63;5032942;28;20028;-80
2022/11/13 09:09:29;;;;;;;26.05;19.13;;;;;;;5.36;100.00;102353.97;5032944;28;20033;-80
2022/11/13 09:11:55;;;;;;;28.02;20.98;;;;;;;5.56;100.00;102374.97;5014599;28;20041;-79
2022/11/13 09:14:20;;;;;;;27.05;20.08;;;;;;;5.68;100.00;102368.78;5033140;28;20021;-79
2022/11/13 09:16:46;;;;;;;25.25;19.42;;;;;;;5.72;100.00;102363.59;5032854;28;20545;-82
2022/11/13 09:19:11;;;;;;;22.85;16.55;;;;;;;5.76;100.00;102364.38;5032786;28;20021;-83
2022/11/13 09:21:36;;;;;;;24.52;17.30;;;;;;;5.79;100.00;102358.31;5014646;28;20037;-80
2022/11/13 09:24:02;;;;;;;21.75;16.20;;;;;;;5.83;100.00;102355.69;5032962;28;20030;-82
2022/11/13 09:26:27;;;;;;;22.63;16.67;;;;;;;5.92;100.00;102347.03;5033049;28;20029;-84
2022/11/13 09:28:52;;;;;;;23.13;16.30;;;;;;;5.56;100.00;102280.16;5032961;28;20477;-80
2022/11/13 09:31:18;;;;;;;25.38;17.02;;;;;;;6.04;100.00;102350.19;5032600;28;20025;-83
2022/11/13 09:33:43;;;;;;;25.23;17.83;;;;;;;6.11;100.00;102348.34;5032740;28;20045;-84
2022/11/13 09:36:11;;;;;;;23.10;16.48;;;;;;;6.15;100.00;102349.97;5034440;28;20029;-82
2022/11/13 09:38:36;;;;;;;21.13;14.70;;;;;;;5.56;100.00;102244.28;5036482;28;20057;-83
2022/11/13 09:41:21;;;;;;;21.48;16.15;;;;;;;6.09;100.00;102321.88;5036847;28;20057;-82
2022/11/13 09:43:51;;;;;;;21.73;15.40;;;;;;;6.01;100.00;102293.00;5036590;28;20033;-82
2022/11/13 09:46:35;;;;;;;20.27;14.82;;;;;;;6.41;100.00;102356.28;5036390;28;20025;-82
2022/11/13 09:49:19;;;;;;;20.60;14.43;;;;;;;6.37;100.00;102334.13;5036555;28;20037;-82
2022/11/13 09:51:54;;;;;;;19.75;15.10;;;;;;;5.96;100.00;102256.34;5036426;28;20021;-82
2022/11/13 09:54:19;;;;;;;19.75;15.13;;;;;;;6.53;99.73;102336.34;5036710;28;20104;-83
2022/11/13 09:56:49;;;;;;;22.38;15.63;;;;;;;6.63;99.48;102344.69;5036710;28;20108;-82
2022/11/13 09:59:26;;;;;;;20.70;14.65;;;;;;;6.66;98.92;102347.16;5035925;28;20022;-82
2022/11/13 10:01:58;;;;;;;18.10;13.65;;;;;;;6.76;97.82;102352.94;5036551;28;20098;-82
2022/11/13 10:04:35;;;;;;;;;;;;;;;6.71;100.00;102350.50;5018931;28;20025;-82
2022/11/13 10:07:17;;;;;;;19.10;13.40;;;;;;;6.84;97.12;102348.47;5036373;28;19917;-81
2022/11/13 10:10:14;;;;;;;19.90;13.55;;;;;;;6.94;95.15;102349.09;5018445;28;20042;-82
2022/11/13 10:12:40;;;;;;;16.08;12.35;;;;;;;7.02;94.56;102348.06;5016619;28;20359;-82
2022/11/13 10:15:08;;;;;;;17.80;12.70;;;;;;;6.97;93.97;102326.75;5016410;28;20080;-82
2022/11/13 10:17:42;;;;;;;16.83;12.07;;;;;;;7.07;94.07;102342.78;5016446;28;20030;-82
2022/11/13 10:20:17;;;;;;;18.10;13.05;;;;;;;7.20;94.76;102341.63;5016292;28;20030;-79
2022/11/13 10:22:49;;;;;;;17.88;13.25;;;;;;;7.25;95.04;102329.50;5016206;28;20037;-81
2022/11/13 10:25:24;;;;;;;18.95;12.90;;;;;;;7.39;93.76;102331.75;5016087;28;20037;-83
2022/11/13 10:27:57;;;;;;;18.42;12.32;;;;;;;7.43;92.91;102341.03;5016067;28;20030;-81
2022/11/13 10:30:22;;;;;;;18.38;12.65;;;;;;;7.52;92.19;102343.38;5015970;28;20164;-81
2022/11/13 10:37:04;;;;;;;17.50;12.38;;;;;;;7.78;91.30;102322.13;5016073;28;20085;-82
2022/11/13 10:39:45;;;;;;;16.65;11.68;;;;;;;7.22;91.30;102223.41;5015573;28;20057;-83
2022/11/13 10:42:23;;;;;;;18.48;11.70;;;;;;;7.61;91.34;102276.28;5015801;28;20366;-84
2022/11/13 10:44:58;;;;;;;17.45;11.82;;;;;;;7.91;91.45;102309.75;5015949;28;20025;-82
2022/11/13 10:47:53;;;;;;;13.45;10.38;;;;;;;7.97;92.32;102299.31;4996898;28;20477;-81
2022/11/13 10:50:27;;;;;;;17.13;11.95;;;;;;;6.89;91.39;102093.28;5014775;28;20026;-80
2022/11/13 10:52:57;;;;;;;15.00;11.38;;;;;;;7.15;89.40;102109.69;5015791;28;20037;-79
2022/11/13 10:55:41;;;;;;;14.68;11.23;;;;;;;7.56;89.65;102154.75;5015714;28;20030;-81
2022/11/13 10:58:29;;;;;;;15.32;10.82;;;;;;;8.14;89.47;102224.19;5015319;28;20026;-81
2022/11/13 11:01:29;;;;;;;14.07;10.43;;;;;;;8.62;88.16;102281.91;4954761;29;20126;-82
2022/11/13 11:03:54;;;;;;;14.93;10.13;;;;;;;7.96;86.55;102148.41;4954798;29;20039;-82
2022/11/13 11:06:34;;;;;;;14.07;9.63;;;;;;;8.43;85.51;102201.00;4954868;29;20043;-83
2022/11/13 11:09:28;;;;;;;14.00;9.52;;;;;;;8.38;84.02;102151.41;4954670;29;20503;-82
2022/11/13 11:12:17;;;;;;;13.52;9.65;;;;;;;9.05;81.48;102231.56;5020874;23;20052;-82
2022/11/13 11:17:37;;;;;;;12.98;8.68;;;;;;;9.46;82.79;102261.06;5087275;23;20061;-83
2022/11/13 11:20:51;;;;;;;12.05;8.30;;;;;;;9.42;83.43;102258.63;5017322;28;20033;-82